createdAt,value
2019-04-22T00:00:42.033Z,12.90
2019-04-22T00:03:14.523Z,13.05
2019-04-22T00:06:00.921Z,12.23
2019-04-22T00:08:35.716Z,14.15
2019-04-22T00:11:12.566Z,14.33
2019-04-22T00:13:40.700Z,15.08
2019-04-22T00:16:07.174Z,14.23
2019-04-22T00:18:56.284Z,14.10
2019-04-22T00:21:12.534Z,13.55
2019-04-22T00:23:39.425Z,15.80
2019-04-22T00:26:08.689Z,14.75
2019-04-22T00:28:44.067Z,14.98
2019-04-22T00:31:20.992Z,15.45
2019-04-22T00:33:52.329Z,14.83
2019-04-22T00:36:24.162Z,15.40
2019-04-22T00:38:58.788Z,15.23
2019-04-22T00:41:34.162Z,16.00
2019-04-22T00:43:59.650Z,16.12
2019-04-22T00:46:26.844Z,16.07
2019-04-22T00:49:20.408Z,15.83
2019-04-22T00:51:30.118Z,15.68
2019-04-22T00:53:54.315Z,15.78
2019-04-22T00:56:22.118Z,15.90
2019-04-22T00:58:50.302Z,16.85
2019-04-22T01:01:23.779Z,15.15
2019-04-22T01:04:04.274Z,16.10
2019-04-22T01:06:35.546Z,15.38
2019-04-22T01:11:45.342Z,15.65
2019-04-22T01:14:04.908Z,16.30
2019-04-22T01:16:40.798Z,15.45
2019-04-22T01:19:00.495Z,12.63
2019-04-22T01:21:40.856Z,16.40
2019-04-22T01:24:02.876Z,13.70
2019-04-22T01:26:33.114Z,13.98
2019-04-22T01:28:59.282Z,15.43
2019-04-22T01:31:20.474Z,15.03
2019-04-22T01:34:02.380Z,15.28
2019-04-22T01:36:38.755Z,15.95
2019-04-22T01:39:10.737Z,13.15
2019-04-22T01:41:48.991Z,15.15
2019-04-22T01:46:44.782Z,16.93
2019-04-22T01:49:14.877Z,16.62
2019-04-22T01:54:29.733Z,15.30
2019-04-22T01:56:55.787Z,17.62
2019-04-22T01:59:15.713Z,17.02
2019-04-22T02:04:26.938Z,15.18
2019-04-22T02:06:57.586Z,16.62
2019-04-22T02:09:31.132Z,17.42
2019-04-22T02:12:00.503Z,17.92
2019-04-22T02:14:35.305Z,17.75
2019-04-22T02:17:04.701Z,17.80
2019-04-22T02:19:31.037Z,18.40
2019-04-22T02:21:59.606Z,17.35
2019-04-22T02:24:33.860Z,16.87
2019-04-22T02:27:00.327Z,15.80
2019-04-22T02:29:36.847Z,17.82
2019-04-22T02:32:16.454Z,15.78
2019-04-22T02:34:40.297Z,18.30
2019-04-22T02:42:10.720Z,17.60
2019-04-22T02:44:37.710Z,17.67
2019-04-22T02:49:39.283Z,17.77
2019-04-22T02:52:18.114Z,17.45
2019-04-22T02:57:22.442Z,17.27
2019-04-22T02:59:46.972Z,17.87
2019-04-22T03:05:00.601Z,17.65
2019-04-22T03:07:10.683Z,16.35
2019-04-22T03:09:47.446Z,19.07
2019-04-22T03:12:21.554Z,16.80
2019-04-22T03:22:25.911Z,15.58
2019-04-22T03:25:29.813Z,17.05
2019-04-22T03:27:20.026Z,17.32
2019-04-22T03:30:41.931Z,17.87
2019-04-22T03:35:37.299Z,16.80
2019-04-22T03:37:49.142Z,19.90
2019-04-22T03:42:51.998Z,19.12
2019-04-22T03:50:22.682Z,18.02
2019-04-22T03:52:44.491Z,19.87
2019-04-22T03:55:18.076Z,17.57
2019-04-22T03:57:50.136Z,19.42
2019-04-22T04:00:30.285Z,19.50
2019-04-22T04:10:27.920Z,19.75
2019-04-22T04:15:27.894Z,19.92
2019-04-22T04:17:53.857Z,19.65
2019-04-22T04:23:05.726Z,18.35
2019-04-22T04:25:38.005Z,21.12
2019-04-22T04:28:24.328Z,18.50
2019-04-22T04:33:13.432Z,19.50
2019-04-22T04:35:44.173Z,20.82
2019-04-22T04:37:58.838Z,20.60
2019-04-22T04:43:08.210Z,21.77
2019-04-22T04:45:45.269Z,20.40
2019-04-22T04:48:18.471Z,18.98
2019-04-22T04:50:47.347Z,19.00
2019-04-22T04:56:01.933Z,20.05
2019-04-22T04:58:25.148Z,20.37
2019-04-22T05:03:20.627Z,19.48
2019-04-22T05:05:49.884Z,18.07
2019-04-22T05:08:35.356Z,18.62
2019-04-22T05:13:40.374Z,17.73
2019-04-22T05:15:59.745Z,18.90
2019-04-22T05:20:59.606Z,17.42
2019-04-22T05:23:25.755Z,16.57
2019-04-22T05:25:41.133Z,18.42
2019-04-22T05:28:15.113Z,18.35
2019-04-22T05:30:47.701Z,16.60
2019-04-22T05:33:16.773Z,17.17
2019-04-22T05:35:46.347Z,15.88
2019-04-22T05:40:40.890Z,14.63
2019-04-22T05:43:22.692Z,14.28
2019-04-22T05:45:51.187Z,13.98
2019-04-22T05:48:18.779Z,14.50
2019-04-22T05:50:54.561Z,13.38
2019-04-22T05:53:19.890Z,12.58
2019-04-22T05:58:25.852Z,11.30
2019-04-22T06:01:29.057Z,11.25
2019-04-22T06:03:42.484Z,11.70
2019-04-22T06:06:10.625Z,11.88
2019-04-22T06:08:44.432Z,11.57
2019-04-22T06:11:14.705Z,11.55
2019-04-22T06:13:31.913Z,12.43
2019-04-22T06:16:09.188Z,11.57
2019-04-22T06:18:55.120Z,11.60
2019-04-22T06:21:18.655Z,11.50
2019-04-22T06:23:54.671Z,10.00
2019-04-22T06:31:28.249Z,11.25
2019-04-22T06:33:56.425Z,12.03
2019-04-22T06:36:24.413Z,10.70
2019-04-22T06:38:46.232Z,10.68
2019-04-22T06:41:21.128Z,11.60
2019-04-22T06:43:57.863Z,10.50
2019-04-22T06:46:20.449Z,9.55
2019-04-22T06:48:55.182Z,10.85
2019-04-22T06:51:31.003Z,9.80
2019-04-22T06:53:55.699Z,9.65
2019-04-22T06:56:22.239Z,9.53
2019-04-22T06:59:11.911Z,9.38
2019-04-22T07:01:27.667Z,9.53
2019-04-22T07:03:56.960Z,8.18
2019-04-22T07:11:23.705Z,8.40
2019-04-22T07:14:01.110Z,8.23
2019-04-22T07:16:32.402Z,6.90
2019-04-22T07:19:01.825Z,7.75
2019-04-22T07:21:33.591Z,8.33
2019-04-22T07:24:23.663Z,8.20
2019-04-22T07:26:29.104Z,7.50
2019-04-22T07:29:01.479Z,8.15
2019-04-22T07:31:34.139Z,8.33
2019-04-22T07:34:08.149Z,7.55
2019-04-22T07:39:04.245Z,8.73
2019-04-22T07:41:38.416Z,7.17
2019-04-22T07:44:13.869Z,7.45
2019-04-22T07:46:43.073Z,7.90
2019-04-22T07:49:10.716Z,6.92
2019-04-22T07:51:46.684Z,6.95
2019-04-22T07:54:24.868Z,7.05
2019-04-22T07:56:54.897Z,7.42
2019-04-22T07:59:26.513Z,8.25
2019-04-22T08:02:02.097Z,7.03
2019-04-22T08:04:23.173Z,6.78
2019-04-22T08:06:52.699Z,7.22
2019-04-22T08:09:33.972Z,6.65
2019-04-22T08:12:02.065Z,8.33
2019-04-22T08:14:24.657Z,7.40
2019-04-22T08:16:51.817Z,7.72
2019-04-22T08:19:20.384Z,6.87
2019-04-22T08:21:52.110Z,6.50
2019-04-22T08:24:22.833Z,6.95
2019-04-22T08:26:53.251Z,6.35
2019-04-22T08:29:28.248Z,6.35
2019-04-22T08:31:54.786Z,6.37
2019-04-22T08:34:27.425Z,7.28
2019-04-22T08:37:25.590Z,6.30
2019-04-22T08:39:25.602Z,6.75
2019-04-22T08:41:51.714Z,7.08
2019-04-22T08:44:39.086Z,5.40
2019-04-22T08:47:08.680Z,5.28
2019-04-22T08:49:34.448Z,6.15
2019-04-22T08:52:03.879Z,6.28
2019-04-22T08:54:29.756Z,5.75
2019-04-22T08:57:07.199Z,6.20
2019-04-22T08:59:28.380Z,5.28
2019-04-22T09:02:09.340Z,5.28
2019-04-22T09:04:34.693Z,5.15
2019-04-22T09:07:16.634Z,5.03
2019-04-22T09:09:31.385Z,4.75
2019-04-22T09:14:37.811Z,4.03
2019-04-22T09:17:03.830Z,4.53
2019-04-22T09:19:35.223Z,4.55
2019-04-22T09:22:08.003Z,4.15
2019-04-22T09:24:35.639Z,4.08
2019-04-22T09:27:11.512Z,3.60
2019-04-22T09:29:39.792Z,3.27
2019-04-22T09:37:11.624Z,2.95
2019-04-22T09:39:41.486Z,3.20
2019-04-22T09:42:14.523Z,3.02
2019-04-22T09:44:45.347Z,2.90
2019-04-22T09:47:07.950Z,3.20
2019-04-22T09:49:46.866Z,3.12
2019-04-22T09:52:13.069Z,2.75
2019-04-22T09:54:51.044Z,2.90
2019-04-22T09:57:09.595Z,2.40
2019-04-22T09:59:43.700Z,3.12
2019-04-22T10:04:46.683Z,3.02
2019-04-22T10:07:17.629Z,2.98
2019-04-22T10:10:03.220Z,3.27
2019-04-22T10:12:19.268Z,2.45
2019-04-22T10:14:45.654Z,2.10
2019-04-22T10:17:12.336Z,2.52
2019-04-22T10:19:41.062Z,2.37
2019-04-22T10:22:19.961Z,2.40
2019-04-22T10:24:45.345Z,2.47
2019-04-22T10:27:12.920Z,2.40
2019-04-22T10:29:54.140Z,2.20
2019-04-22T10:32:20.449Z,1.95
2019-04-22T10:34:35.993Z,2.08
2019-04-22T10:37:02.076Z,1.92
2019-04-22T10:39:37.865Z,2.35
2019-04-22T10:41:56.805Z,2.70
2019-04-22T10:44:26.867Z,2.30
2019-04-22T10:46:58.050Z,2.17
2019-04-22T10:49:26.976Z,2.52
2019-04-22T10:51:55.453Z,2.60
2019-04-22T10:54:25.256Z,2.70
2019-04-22T10:56:55.081Z,3.17
2019-04-22T10:59:24.696Z,2.62
2019-04-22T11:01:54.806Z,2.50
2019-04-22T11:04:23.513Z,3.00
2019-04-22T11:06:57.703Z,2.60
2019-04-22T11:09:23.897Z,2.67
2019-04-22T11:12:01.378Z,3.12
2019-04-22T11:14:23.173Z,2.60
2019-04-22T11:16:53.363Z,3.35
2019-04-22T11:19:23.648Z,2.98
2019-04-22T11:22:03.396Z,3.37
2019-04-22T11:24:23.019Z,2.00
2019-04-22T11:26:52.756Z,2.80
2019-04-22T11:29:21.651Z,2.27
2019-04-22T11:31:52.506Z,2.27
2019-04-22T11:34:21.429Z,2.70
2019-04-22T11:36:52.593Z,2.65
2019-04-22T11:39:21.815Z,2.60
2019-04-22T11:41:51.821Z,2.70
2019-04-22T11:44:21.351Z,2.45
2019-04-22T11:46:51.544Z,1.82
2019-04-22T11:49:21.889Z,2.17
2019-04-22T11:51:51.802Z,2.42
2019-04-22T11:54:20.981Z,2.30
2019-04-22T11:56:49.673Z,2.58
2019-04-22T11:59:18.540Z,2.35
2019-04-22T12:01:49.149Z,2.45
2019-04-22T12:04:18.041Z,1.70
2019-04-22T12:06:46.593Z,2.50
2019-04-22T12:09:17.443Z,2.33
2019-04-22T12:11:46.908Z,2.40
2019-04-22T12:14:17.976Z,3.52
2019-04-22T12:16:45.647Z,2.37
2019-04-22T12:19:15.673Z,2.17
2019-04-22T12:21:44.902Z,2.33
2019-04-22T12:24:13.474Z,2.27
2019-04-22T12:26:42.461Z,2.80
2019-04-22T12:29:11.405Z,2.52
2019-04-22T12:31:41.883Z,2.33
2019-04-22T12:34:11.293Z,2.47
2019-04-22T12:36:40.415Z,3.05
2019-04-22T12:39:09.801Z,2.60
2019-04-22T12:41:40.541Z,1.92
2019-04-22T12:44:09.507Z,2.40
2019-04-22T12:46:38.415Z,2.35
2019-04-22T12:49:08.012Z,2.95
2019-04-22T12:51:36.971Z,3.00
2019-04-22T12:54:06.836Z,2.35
2019-04-22T12:56:35.550Z,3.00
2019-04-22T12:59:05.632Z,2.33
2019-04-22T13:01:35.064Z,2.67
2019-04-22T13:04:09.108Z,3.15
2019-04-22T13:06:35.604Z,2.50
2019-04-22T13:09:06.741Z,2.98
2019-04-22T13:11:38.454Z,3.15
2019-04-22T13:14:07.291Z,2.85
2019-04-22T13:16:36.101Z,2.60
2019-04-22T13:19:11.126Z,2.05
2019-04-22T13:21:36.507Z,2.67
2019-04-22T13:24:06.950Z,1.67
2019-04-22T13:26:35.928Z,2.17
2019-04-22T13:29:05.191Z,2.42
2019-04-22T13:31:34.921Z,2.65
2019-04-22T13:34:04.032Z,2.47
2019-04-22T13:36:34.627Z,2.35
2019-04-22T13:39:04.870Z,2.27
2019-04-22T13:41:41.760Z,2.33
2019-04-22T13:44:04.972Z,2.52
2019-04-22T13:46:34.116Z,2.77
2019-04-22T13:49:31.643Z,2.17
2019-04-22T13:52:19.117Z,2.15
2019-04-22T13:56:55.099Z,1.80
2019-04-22T13:59:13.571Z,2.08
2019-04-22T14:01:40.915Z,2.45
2019-04-22T14:04:14.487Z,2.10
2019-04-22T14:06:43.014Z,2.42
2019-04-22T14:09:11.725Z,2.20
2019-04-22T14:11:49.304Z,2.02
2019-04-22T14:14:10.952Z,2.40
2019-04-22T14:16:40.851Z,1.90
2019-04-22T14:19:13.941Z,1.82
2019-04-22T14:21:44.382Z,3.05
2019-04-22T14:24:14.326Z,2.52
2019-04-22T14:26:57.000Z,2.10
2019-04-22T14:29:13.659Z,2.58
2019-04-22T14:31:44.520Z,2.40
2019-04-22T14:34:13.842Z,2.37
2019-04-22T14:36:43.657Z,2.33
2019-04-22T14:39:15.581Z,2.40
2019-04-22T14:42:04.802Z,2.22
2019-04-22T14:49:36.672Z,2.92
2019-04-22T14:52:13.272Z,2.50
2019-04-22T14:54:31.287Z,2.65
2019-04-22T14:56:46.679Z,2.27
2019-04-22T14:59:16.603Z,2.35
2019-04-22T15:01:45.665Z,2.33
2019-04-22T15:04:15.208Z,2.15
2019-04-22T15:06:47.999Z,2.75
2019-04-22T15:09:14.586Z,1.77
2019-04-22T15:11:54.838Z,2.15
2019-04-22T15:14:15.084Z,2.70
2019-04-22T15:16:55.159Z,2.30
2019-04-22T15:19:25.685Z,1.87
2019-04-22T15:21:54.675Z,2.60
2019-04-22T15:24:25.174Z,2.17
2019-04-22T15:26:56.299Z,2.20
2019-04-22T15:29:25.541Z,1.85
2019-04-22T15:31:55.694Z,1.65
2019-04-22T15:34:24.977Z,2.30
2019-04-22T15:36:54.053Z,1.90
2019-04-22T15:39:23.243Z,2.85
2019-04-22T15:42:00.399Z,2.27
2019-04-22T15:44:22.104Z,1.77
2019-04-22T15:46:51.009Z,2.12
2019-04-22T15:49:20.122Z,2.37
2019-04-22T15:51:49.096Z,1.85
2019-04-22T15:54:17.645Z,2.20
2019-04-22T15:56:46.649Z,2.10
2019-04-22T15:59:30.201Z,1.70
2019-04-22T16:01:46.774Z,1.95
2019-04-22T16:04:16.986Z,1.75
2019-04-22T16:06:49.378Z,2.05
2019-04-22T16:09:18.262Z,2.17
2019-04-22T16:11:47.749Z,2.27
2019-04-22T16:14:24.038Z,1.62
2019-04-22T16:16:48.267Z,1.87
2019-04-22T16:19:17.038Z,2.10
2019-04-22T16:21:53.025Z,2.00
2019-04-22T16:24:18.191Z,2.55
2019-04-22T16:26:53.866Z,2.83
2019-04-22T16:29:23.325Z,2.17
2019-04-22T16:31:53.467Z,1.80
2019-04-22T16:34:23.888Z,1.92
2019-04-22T16:36:52.870Z,1.87
2019-04-22T16:39:26.935Z,2.65
2019-04-22T16:41:56.971Z,1.85
2019-04-22T16:44:27.517Z,1.85
2019-04-22T16:46:57.307Z,2.22
2019-04-22T16:49:27.621Z,3.92
2019-04-22T16:52:00.296Z,1.98
2019-04-22T16:54:36.647Z,2.65
2019-04-22T16:57:06.112Z,3.27
2019-04-22T16:59:35.139Z,2.47
2019-04-22T17:02:24.626Z,2.27
2019-04-22T17:05:02.929Z,2.50
2019-04-22T17:07:31.881Z,3.55
2019-04-22T17:10:01.804Z,3.20
2019-04-22T17:12:40.844Z,4.97
2019-04-22T17:15:07.284Z,2.90
2019-04-22T17:17:32.765Z,2.08
2019-04-22T17:20:02.913Z,2.20
2019-04-22T17:22:33.465Z,2.95
2019-04-22T17:25:02.654Z,3.85
2019-04-22T17:27:34.424Z,3.22
2019-04-22T17:30:06.337Z,14.65
2019-04-22T17:32:35.654Z,3.50
2019-04-22T17:35:08.334Z,4.40
2019-04-22T17:40:48.778Z,4.47
2019-04-22T17:43:36.097Z,2.50
2019-04-22T17:48:57.517Z,4.40
2019-04-22T17:51:32.893Z,2.67
2019-04-22T17:53:58.179Z,3.05
2019-04-22T17:56:31.482Z,2.95
2019-04-22T17:59:18.698Z,3.00
2019-04-22T18:01:29.504Z,2.52
2019-04-22T18:03:47.591Z,2.35
2019-04-22T18:06:44.016Z,2.87
2019-04-22T18:09:14.512Z,2.87
2019-04-22T18:11:49.632Z,2.90
2019-04-22T18:14:34.969Z,2.75
2019-04-22T18:16:53.565Z,5.55
2019-04-22T18:19:21.132Z,2.95
2019-04-22T18:21:47.740Z,2.87
2019-04-22T18:24:15.671Z,2.65
2019-04-22T18:29:48.425Z,2.52
2019-04-22T18:32:16.829Z,2.27
2019-04-22T18:34:49.523Z,2.70
2019-04-22T18:37:21.815Z,2.60
2019-04-22T18:40:00.198Z,2.65
2019-04-22T18:42:24.180Z,2.20
2019-04-22T18:45:06.801Z,2.33
2019-04-22T18:47:25.114Z,2.02
2019-04-22T18:49:55.050Z,2.52
2019-04-22T18:52:48.750Z,2.47
2019-04-22T18:55:31.937Z,2.10
2019-04-22T18:58:16.382Z,2.10
2019-04-22T19:00:34.356Z,2.27
2019-04-22T19:03:11.187Z,2.47
2019-04-22T19:05:54.356Z,1.80
2019-04-22T19:08:36.884Z,1.98
2019-04-22T19:11:02.525Z,1.70
2019-04-22T19:16:17.222Z,1.80
2019-04-22T19:21:02.811Z,1.90
2019-04-22T19:23:44.915Z,2.12
2019-04-22T19:26:02.800Z,1.90
2019-04-22T19:28:34.456Z,1.55
2019-04-22T19:31:10.740Z,1.62
2019-04-22T19:33:35.505Z,1.75
2019-04-22T19:36:07.517Z,1.85
2019-04-22T19:38:26.358Z,2.10
2019-04-22T19:41:13.422Z,1.92
2019-04-22T19:43:38.945Z,1.42
2019-04-22T19:46:02.092Z,1.85
2019-04-22T19:48:46.513Z,1.85
2019-04-22T19:51:12.775Z,1.82
2019-04-22T19:53:42.056Z,1.98
2019-04-22T19:56:06.158Z,2.00
2019-04-22T19:58:35.972Z,2.12
2019-04-22T20:01:16.312Z,1.85
2019-04-22T20:04:13.160Z,1.60
2019-04-22T20:06:39.593Z,1.95
2019-04-22T20:09:13.970Z,1.70
2019-04-22T20:11:38.617Z,2.08
2019-04-22T20:14:12.858Z,1.95
2019-04-22T20:16:39.124Z,1.87
2019-04-22T20:19:19.257Z,1.60
2019-04-22T20:21:50.144Z,1.75
2019-04-22T20:24:04.401Z,2.52
2019-04-22T20:26:51.258Z,1.60
2019-04-22T20:29:20.907Z,1.82
2019-04-22T20:31:49.574Z,2.08
2019-04-22T20:34:22.296Z,1.90
2019-04-22T20:36:57.038Z,1.62
2019-04-22T20:39:12.250Z,1.67
2019-04-22T20:41:47.918Z,1.62
2019-04-22T20:44:26.061Z,2.00
2019-04-22T20:46:52.141Z,1.98
2019-04-22T20:49:21.790Z,1.77
2019-04-22T20:52:00.315Z,2.62
2019-04-22T20:54:22.868Z,2.10
2019-04-22T20:56:51.932Z,1.92
2019-04-22T20:59:24.318Z,2.70
2019-04-22T21:01:55.178Z,2.37
2019-04-22T21:04:21.232Z,2.42
2019-04-22T21:06:55.962Z,2.30
2019-04-22T21:09:34.655Z,2.67
2019-04-22T21:12:02.668Z,2.47
2019-04-22T21:14:36.422Z,2.10
2019-04-22T21:17:08.041Z,2.17
2019-04-22T21:19:43.353Z,2.65
2019-04-22T21:22:10.879Z,1.92
2019-04-22T21:24:40.217Z,2.10
2019-04-22T21:27:14.065Z,2.50
2019-04-22T21:29:42.495Z,2.10
2019-04-22T21:32:13.679Z,2.25
2019-04-22T21:34:51.045Z,2.17
2019-04-22T21:37:20.909Z,2.00
2019-04-22T21:39:40.722Z,2.65
2019-04-22T21:42:14.238Z,2.40
2019-04-22T21:44:44.003Z,2.55
2019-04-22T21:50:21.402Z,2.22
2019-04-22T21:52:40.459Z,2.47
2019-04-22T21:55:17.695Z,2.20
2019-04-22T21:58:05.268Z,2.40
2019-04-22T22:03:23.599Z,2.58
2019-04-22T22:05:44.333Z,2.00
2019-04-22T22:08:27.525Z,2.22
2019-04-22T22:10:52.265Z,2.50
2019-04-22T22:13:25.368Z,2.55
2019-04-22T22:15:52.145Z,2.75
2019-04-22T22:18:20.029Z,2.27
2019-04-22T22:21:12.643Z,2.27
2019-04-22T22:25:52.271Z,2.62
2019-04-22T22:28:42.043Z,2.47
2019-04-22T22:31:05.007Z,2.58
2019-04-22T22:33:30.120Z,2.58
2019-04-22T22:35:58.050Z,2.45
2019-04-22T22:38:27.253Z,2.52
2019-04-22T22:40:40.443Z,2.08
2019-04-22T22:46:21.728Z,2.22
2019-04-22T22:48:58.844Z,2.50
2019-04-22T22:51:40.314Z,2.20
2019-04-22T22:54:01.832Z,2.25
2019-04-22T22:56:38.540Z,2.30
2019-04-22T22:59:00.245Z,2.27
2019-04-22T23:01:37.396Z,1.95
2019-04-22T23:04:03.663Z,1.98
2019-04-22T23:06:38.390Z,2.33
2019-04-22T23:09:04.255Z,1.52
2019-04-22T23:11:52.582Z,2.25
2019-04-22T23:14:02.844Z,2.17
2019-04-22T23:16:22.117Z,2.22
2019-04-22T23:19:01.765Z,2.25
2019-04-22T23:21:39.778Z,1.80
2019-04-22T23:24:21.419Z,2.08
2019-04-22T23:27:04.320Z,1.85
2019-04-22T23:29:32.309Z,2.02
2019-04-22T23:32:05.557Z,2.25
2019-04-22T23:34:41.165Z,2.27
2019-04-22T23:37:14.853Z,1.87
2019-04-22T23:39:54.745Z,1.80
2019-04-22T23:42:22.158Z,2.20
2019-04-22T23:44:49.600Z,1.67
2019-04-22T23:47:14.877Z,2.15
2019-04-22T23:49:53.573Z,2.00
2019-04-22T23:52:30.360Z,2.02
2019-04-22T23:54:58.523Z,2.10
2019-04-22T23:57:31.380Z,2.15
